CYXS

Prince George Airport

Prince George, British Columbia, Canada
METAR CYXS 260300Z AUTO 18006KT 9SM OVC070 M03/M07 A2954 RMK SLP041
Observed Flight Rules
Feb-26 @ 03:00 UTC (34 minutes ago) Visual Flight Rules
Wind Visibility Clouds
180° at 6 knots 9 miles
  • Overcast at 7,000' AGL
Temperatures Readings
Current -3°C / 27°F
Dewpoint -7°C / 19°F
Humidity 74%
Altimeter 29.54" Hg
Pressure 1004.1 hPa
Elevation 691
METAR CYXS 260300Z AUTO 18006KT 9SM OVC070 M03/M07 A2954 RMK SLP041
Observed Flight Rules
Feb-26 @ 03:00 UTC
(34 minutes ago)
VFR
Wind Visibility
180° at 6 knots 9 miles
Clouds
  • Overcast at 7,000' AGL
Temperature Dewpoint
-3°C / 27°F -7°C / 19°F
Humidity Altimeter Pressure
74% 29.54" Hg 1004.1 hPa